Airfield :
LOGIN :

Register | Disclaimer

   EN    FR    IT 

 










Legend :    VFR   Marginal VFR   IFR   Intensive IFR   Very Intensive IFR
Visi :
Ceiling :
>= 8 km
>= 3000ft
5 to 8 km
1000 to 3000 ft
1500m to 5 km
500 to 1000 ft
800 to 1500m
200 to 500 ft
< 800m
< 200 ft
Symbols :   Thunderstorms  Fog  Heavy snow  Heavy precipitations  Wind > 20 kt
SIGMETs :     Misc.  Thunderstorms  Icing  Turbulence  Mountain Waves  Volcanic Ashes







- Airport Elevation : 39 ft
- IATA code : TRS


LIPQ - Friuli Venezia Giulia Apt. Trieste

CURRENT METAR :
  • 180720Z VRB02KT 3000 BR VCFG SCT002 13/13 Q1020

EXPIRED METARs :
  • 180650Z 11003KT 070V140 2000 R09/1300U BR OVC002 12/12 Q1020
  • 180620Z VRB02KT 0400 R09/1400N FG VV001 13/13 Q1020
  • 180550Z 06004KT 0250 R09/0450N FG VV001 12/12 Q1020
  • 180520Z 11003KT 0400 R09/0800VP1500U FG VV001 11/11 Q1020
  • 180450Z 11002KT 0400 R09/0700V1200N FG VV001 12/12 Q1020

TAF TAF LIPQ
Valid from the 18 at 06:00 until the 19 at 06:00 UTC


180500Z 1806/1906 VRB05KT 0200 FG BKN005
BECMG 1807/1810 CAVOK
BECMG 1816/1818 2000 BR
BECMG 1820/1822 0600 FG BKN007
No reported NOTAMs for that airfield.



MET'MAP, your aeronautical weather chart ! - Copyright ORBIFLY December 2007 - Disclaimer

ORBIFLY MET'MAP TEAM :

Programming & Development : Alexandra Zaïnal
Concept & Development : Baudouin d'Aumeries
Co-Development & Prog : Marc-Olivier Méhu
Technical & hardware support : Manuel Goepfert

Contact : metmap@orbifly.com




SOURCES & CREDITS :

   NOAA